createdAt,value
2023-01-03T00:03:26.345Z,79.04
2023-01-03T00:07:35.561Z,79.83
2023-01-03T00:11:56.059Z,79.61
2023-01-03T00:15:55.549Z,76.89
2023-01-03T00:19:54.932Z,77.92
2023-01-03T00:23:53.820Z,76.93
2023-01-03T00:27:55.665Z,77.23
2023-01-03T00:31:55.616Z,77.45
2023-01-03T00:35:55.016Z,78.03
2023-01-03T00:39:53.891Z,76.17
2023-01-03T00:43:55.516Z,76.31
2023-01-03T00:47:54.415Z,75.71
2023-01-03T00:51:54.249Z,75.56
2023-01-03T00:55:53.240Z,75.69
2023-01-03T00:59:54.849Z,75.80
2023-01-03T01:03:55.761Z,78.37
2023-01-03T01:07:55.185Z,80.76
2023-01-03T01:11:54.869Z,79.84
2023-01-03T01:15:56.034Z,78.98
2023-01-03T01:19:55.949Z,79.64
2023-01-03T01:23:55.573Z,79.77
2023-01-03T01:27:55.059Z,79.37
2023-01-03T01:31:57.076Z,78.96
2023-01-03T01:35:56.497Z,78.03
2023-01-03T01:39:55.742Z,78.54
2023-01-03T01:44:14.979Z,79.08
2023-01-03T01:48:16.528Z,78.95
2023-01-03T01:52:17.810Z,79.32
2023-01-03T01:56:18.422Z,80.05
2023-01-03T02:00:18.200Z,81.48
2023-01-03T02:04:23.369Z,82.12
2023-01-03T02:08:24.730Z,82.67
2023-01-03T02:12:43.926Z,82.39
2023-01-03T02:17:06.346Z,81.88
2023-01-03T02:21:35.088Z,81.45
2023-01-03T02:26:02.995Z,80.06
2023-01-03T02:30:10.589Z,79.55
2023-01-03T02:34:16.031Z,79.60
2023-01-03T02:38:22.779Z,80.36
2023-01-03T02:42:42.195Z,83.51
2023-01-03T02:46:45.602Z,86.94
2023-01-03T02:50:47.548Z,88.54
2023-01-03T02:54:48.527Z,87.28
2023-01-03T02:58:50.402Z,87.34
2023-01-03T03:02:53.919Z,86.96
2023-01-03T03:06:58.704Z,85.57
2023-01-03T03:11:15.454Z,83.00
2023-01-03T03:15:17.286Z,82.15
2023-01-03T03:19:35.412Z,81.80
2023-01-03T03:23:53.871Z,81.59
2023-01-03T03:28:11.392Z,81.02
2023-01-03T03:32:10.775Z,81.58
2023-01-03T03:36:14.806Z,81.71
2023-01-03T03:40:30.833Z,81.29
2023-01-03T03:44:50.279Z,80.99
2023-01-03T03:49:07.151Z,80.93
2023-01-03T03:53:20.576Z,80.93
2023-01-03T03:57:23.105Z,80.89
2023-01-03T04:01:24.739Z,81.03
2023-01-03T04:05:27.229Z,81.48
2023-01-03T04:09:28.953Z,81.66
2023-01-03T04:13:27.945Z,82.05
2023-01-03T04:17:27.416Z,82.08
2023-01-03T04:21:27.532Z,81.31
2023-01-03T04:25:28.787Z,81.63
2023-01-03T04:29:30.748Z,83.55
2023-01-03T04:33:32.355Z,84.32
2023-01-03T04:37:31.945Z,84.42
2023-01-03T04:41:36.211Z,84.31
2023-01-03T04:45:36.150Z,84.23
2023-01-03T04:49:35.489Z,85.35
2023-01-03T04:53:35.127Z,85.98
2023-01-03T04:57:36.298Z,87.92
2023-01-03T05:01:36.179Z,90.51
2023-01-03T05:05:35.121Z,94.80
2023-01-03T05:09:34.591Z,92.85
2023-01-03T05:13:35.881Z,90.81
2023-01-03T05:17:35.518Z,87.83
2023-01-03T05:21:51.743Z,87.14
2023-01-03T05:25:53.988Z,86.73
2023-01-03T05:29:56.065Z,86.49
2023-01-03T05:33:57.490Z,86.29
2023-01-03T05:38:00.729Z,86.35
2023-01-03T05:42:03.090Z,86.42
2023-01-03T05:46:04.996Z,85.39
2023-01-03T05:50:04.515Z,84.39
2023-01-03T05:54:03.869Z,83.84
2023-01-03T05:58:02.929Z,83.09
2023-01-03T06:02:05.020Z,82.46
2023-01-03T06:06:04.580Z,82.34
2023-01-03T06:10:04.509Z,83.19
2023-01-03T06:14:04.582Z,82.51
2023-01-03T06:18:06.424Z,82.97
2023-01-03T06:22:10.895Z,82.22
2023-01-03T06:26:11.207Z,82.63
2023-01-03T06:30:11.828Z,81.37
2023-01-03T06:34:13.125Z,81.97
2023-01-03T06:38:12.946Z,81.51
2023-01-03T06:42:28.997Z,79.30
2023-01-03T06:46:44.539Z,78.47
2023-01-03T06:51:02.759Z,77.23
2023-01-03T06:55:02.518Z,76.44
2023-01-03T06:59:01.430Z,73.78
2023-01-03T07:03:04.346Z,72.54
2023-01-03T07:07:40.191Z,70.44
2023-01-03T07:11:42.127Z,69.03
2023-01-03T07:16:39.988Z,66.59
2023-01-03T07:20:49.441Z,64.88
2023-01-03T07:24:48.908Z,63.28
2023-01-03T07:28:55.131Z,63.06
2023-01-03T07:32:58.417Z,62.58
2023-01-03T07:53:54.220Z,60.91
2023-01-03T07:57:53.517Z,59.75
2023-01-03T08:01:52.958Z,62.25
2023-01-03T08:05:52.302Z,64.40
2023-01-03T08:10:15.125Z,66.42
2023-01-03T08:14:14.680Z,66.82
2023-01-03T08:18:13.830Z,67.24
2023-01-03T08:22:13.344Z,67.21
2023-01-03T08:26:15.764Z,69.93
2023-01-03T08:30:14.780Z,72.88
2023-01-03T08:34:19.753Z,76.06
2023-01-03T08:38:23.429Z,77.80
2023-01-03T08:42:26.387Z,79.77
2023-01-03T08:46:29.039Z,80.62
2023-01-03T08:50:30.173Z,80.90
2023-01-03T08:54:29.137Z,80.30
2023-01-03T08:58:30.865Z,79.18
2023-01-03T09:02:29.891Z,78.77
2023-01-03T09:06:41.030Z,77.32
2023-01-03T09:10:47.182Z,74.48
2023-01-03T09:14:48.905Z,72.28
2023-01-03T09:18:52.488Z,70.35
2023-01-03T09:22:51.813Z,68.51
2023-01-03T09:26:54.729Z,66.12
2023-01-03T09:30:56.527Z,66.74
2023-01-03T09:34:55.980Z,66.44
2023-01-03T09:38:54.954Z,66.30
2023-01-03T09:43:19.822Z,66.62
2023-01-03T09:47:26.167Z,66.11
2023-01-03T09:51:44.466Z,67.38
2023-01-03T09:56:21.331Z,67.30
2023-01-03T10:00:38.995Z,66.00
2023-01-03T10:04:51.716Z,65.79
2023-01-03T10:09:03.830Z,64.65
2023-01-03T10:13:14.705Z,63.89
2023-01-03T10:17:24.815Z,64.13
2023-01-03T10:21:29.172Z,64.81
2023-01-03T10:25:30.615Z,65.08
2023-01-03T10:29:29.922Z,64.95
2023-01-03T10:33:32.364Z,64.67
2023-01-03T10:37:33.402Z,63.98
2023-01-03T10:41:34.298Z,63.87
2023-01-03T10:45:42.769Z,63.43
2023-01-03T10:49:51.870Z,62.35
2023-01-03T10:53:55.189Z,61.30
2023-01-03T10:58:02.657Z,60.67
2023-01-03T11:02:03.557Z,60.16
2023-01-03T11:06:15.837Z,59.21
2023-01-03T11:10:34.561Z,58.66
2023-01-03T11:14:34.187Z,58.88
2023-01-03T11:18:33.541Z,59.21
2023-01-03T11:22:39.229Z,59.20
2023-01-03T11:26:44.919Z,59.27
2023-01-03T11:30:52.221Z,60.16
2023-01-03T11:35:25.355Z,59.34
2023-01-03T11:39:39.385Z,60.01
2023-01-03T11:43:45.594Z,59.88
2023-01-03T11:48:31.659Z,59.88
2023-01-03T11:52:38.103Z,59.20
2023-01-03T11:56:38.832Z,58.29
2023-01-03T12:00:55.436Z,59.14
2023-01-03T12:05:05.739Z,59.08
2023-01-03T12:09:16.474Z,58.99
2023-01-03T12:13:29.064Z,58.29
2023-01-03T12:17:35.925Z,57.89
2023-01-03T12:21:47.407Z,57.67
2023-01-03T12:25:50.745Z,57.00
2023-01-03T12:29:54.237Z,56.87
2023-01-03T12:33:58.227Z,55.71
2023-01-03T12:38:00.640Z,56.27
2023-01-03T12:42:03.767Z,56.32
2023-01-03T12:46:12.127Z,55.79
2023-01-03T12:50:19.716Z,55.81
2023-01-03T12:54:25.441Z,56.21
2023-01-03T12:58:39.284Z,56.67
2023-01-03T13:02:45.457Z,57.05
2023-01-03T13:06:48.622Z,56.66
2023-01-03T13:10:53.226Z,56.78
2023-01-03T13:14:56.669Z,56.91
2023-01-03T13:18:56.063Z,56.83
2023-01-03T13:22:55.936Z,56.76
2023-01-03T13:27:13.019Z,57.00
2023-01-03T13:31:31.185Z,57.67
2023-01-03T13:35:36.327Z,57.22
2023-01-03T13:39:42.258Z,57.74
2023-01-03T13:43:41.282Z,57.98
2023-01-03T13:47:45.068Z,57.93
2023-01-03T13:51:51.365Z,58.42
2023-01-03T13:56:02.586Z,58.94
2023-01-03T14:00:03.774Z,59.42
2023-01-03T14:04:45.903Z,59.88
2023-01-03T14:09:03.457Z,60.67
2023-01-03T14:13:14.393Z,60.80
2023-01-03T14:17:20.749Z,61.23
2023-01-03T14:21:25.925Z,61.52
2023-01-03T14:25:35.402Z,61.71
2023-01-03T14:29:39.181Z,61.71
2023-01-03T14:33:41.567Z,62.33
2023-01-03T14:37:48.348Z,62.43
2023-01-03T14:41:49.192Z,62.93
2023-01-03T14:45:55.024Z,63.56
2023-01-03T14:49:54.624Z,63.67
2023-01-03T14:53:55.672Z,63.95
2023-01-03T14:58:04.298Z,64.10
2023-01-03T15:02:06.995Z,64.27
2023-01-03T15:06:18.019Z,64.88
2023-01-03T15:10:24.024Z,64.74
2023-01-03T15:14:24.084Z,65.30
2023-01-03T15:18:27.042Z,65.44
2023-01-03T15:22:28.283Z,65.72
2023-01-03T15:26:28.946Z,66.16
2023-01-03T15:30:32.015Z,66.01
2023-01-03T15:34:42.659Z,65.62
2023-01-03T15:38:44.033Z,65.56
2023-01-03T15:43:02.227Z,65.54
2023-01-03T15:47:02.755Z,65.51
2023-01-03T15:51:04.784Z,65.29
2023-01-03T15:55:03.683Z,65.60
2023-01-03T15:59:05.307Z,65.50
2023-01-03T16:03:04.968Z,65.14
2023-01-03T16:07:06.653Z,65.15
2023-01-03T16:11:07.497Z,65.12
2023-01-03T16:15:08.294Z,64.73
2023-01-03T16:19:08.221Z,64.30
2023-01-03T16:23:17.303Z,64.86
2023-01-03T16:27:17.329Z,65.86
2023-01-03T16:31:48.293Z,65.28
2023-01-03T17:10:54.563Z,69.22
2023-01-03T22:34:22.443Z,88.88
2023-01-03T23:12:54.808Z,83.26
2023-01-03T23:35:57.971Z,83.62
2023-01-03T23:41:10.786Z,82.89
